createdAt,value
2019-03-12T00:00:27.685Z,35.73
2019-03-12T00:02:56.868Z,38.50
2019-03-12T00:05:26.380Z,36.63
2019-03-12T00:07:55.629Z,40.45
2019-03-12T00:10:24.804Z,37.17
2019-03-12T00:12:54.144Z,34.80
2019-03-12T00:15:23.423Z,35.30
2019-03-12T00:17:52.695Z,35.83
2019-03-12T00:20:21.986Z,38.13
2019-03-12T00:22:51.168Z,36.30
2019-03-12T00:25:20.350Z,38.95
2019-03-12T00:27:49.642Z,36.38
2019-03-12T00:30:19.193Z,38.80
2019-03-12T00:32:48.492Z,31.82
2019-03-12T00:35:17.811Z,36.55
2019-03-12T00:37:46.993Z,35.43
2019-03-12T00:40:16.263Z,37.00
2019-03-12T00:42:45.442Z,34.75
2019-03-12T00:45:14.645Z,33.23
2019-03-12T00:47:44.018Z,35.88
2019-03-12T00:50:13.192Z,34.03
2019-03-12T00:52:42.379Z,37.78
2019-03-12T00:55:11.707Z,33.30
2019-03-12T00:57:40.879Z,32.93
2019-03-12T01:00:15.751Z,34.95
2019-03-12T01:02:44.928Z,33.08
2019-03-12T01:05:14.243Z,30.92
2019-03-12T01:07:43.479Z,33.15
2019-03-12T01:10:14.386Z,31.07
2019-03-12T01:12:43.649Z,35.48
2019-03-12T01:15:15.770Z,29.50
2019-03-12T01:17:45.028Z,33.02
2019-03-12T01:20:15.344Z,32.93
2019-03-12T01:22:44.524Z,35.95
2019-03-12T01:25:14.291Z,32.25
2019-03-12T01:27:43.470Z,30.25
2019-03-12T01:30:15.610Z,28.35
2019-03-12T01:32:44.889Z,28.92
2019-03-12T01:35:14.104Z,27.70
2019-03-12T01:37:43.287Z,25.68
2019-03-12T01:40:13.854Z,29.15
2019-03-12T01:42:43.027Z,29.42
2019-03-12T01:45:15.581Z,28.15
2019-03-12T01:47:45.295Z,26.10
2019-03-12T01:50:15.303Z,24.10
2019-03-12T01:52:44.476Z,25.88
2019-03-12T01:55:15.041Z,26.15
2019-03-12T01:57:44.220Z,25.77
2019-03-12T02:00:16.274Z,26.82
2019-03-12T02:02:45.778Z,29.95
2019-03-12T02:05:15.097Z,27.37
2019-03-12T02:07:44.438Z,23.50
2019-03-12T02:10:16.550Z,28.15
2019-03-12T02:12:45.769Z,27.25
2019-03-12T02:15:17.121Z,23.92
2019-03-12T02:17:46.297Z,31.27
2019-03-12T02:20:19.543Z,26.62
2019-03-12T02:22:48.730Z,25.55
2019-03-12T02:25:18.939Z,24.92
2019-03-12T02:27:48.180Z,24.70
2019-03-12T02:30:18.907Z,26.73
2019-03-12T02:32:48.275Z,26.70
2019-03-12T02:35:17.492Z,22.10
2019-03-12T02:37:46.757Z,24.05
2019-03-12T02:40:16.198Z,24.00
2019-03-12T02:42:45.494Z,24.45
2019-03-12T02:45:17.206Z,24.15
2019-03-12T02:47:46.394Z,22.52
2019-03-12T02:50:16.232Z,25.80
2019-03-12T02:52:45.380Z,28.10
2019-03-12T02:55:15.850Z,24.90
2019-03-12T02:57:44.997Z,25.65
2019-03-12T03:00:22.484Z,22.98
2019-03-12T03:02:51.726Z,22.67
2019-03-12T03:05:20.942Z,20.50
2019-03-12T03:07:54.203Z,21.50
2019-03-12T03:10:23.459Z,23.05
2019-03-12T03:12:52.715Z,22.90
2019-03-12T03:15:35.574Z,19.35
2019-03-12T03:18:04.820Z,20.60
2019-03-12T03:20:34.190Z,21.95
2019-03-12T03:23:03.371Z,22.55
2019-03-12T03:25:32.573Z,21.35
2019-03-12T03:28:01.878Z,19.50
2019-03-12T03:30:31.191Z,23.27
2019-03-12T03:33:00.495Z,20.82
2019-03-12T03:35:29.695Z,19.12
2019-03-12T03:37:58.878Z,15.43
2019-03-12T03:40:28.044Z,19.90
2019-03-12T03:42:57.262Z,17.87
2019-03-12T03:45:26.662Z,21.80
2019-03-12T03:47:55.943Z,23.00
2019-03-12T03:50:25.178Z,19.73
2019-03-12T03:52:54.418Z,22.95
2019-03-12T03:55:23.760Z,18.55
2019-03-12T03:57:52.959Z,17.48
2019-03-12T04:00:23.395Z,23.52
2019-03-12T04:02:52.794Z,17.57
2019-03-12T04:05:22.060Z,22.87
2019-03-12T04:07:51.567Z,21.62
2019-03-12T04:10:20.870Z,19.50
2019-03-12T04:12:50.213Z,19.70
2019-03-12T04:15:19.879Z,19.40
2019-03-12T04:17:49.127Z,25.62
2019-03-12T04:20:18.872Z,21.40
2019-03-12T04:22:49.362Z,20.88
2019-03-12T04:25:18.756Z,20.60
2019-03-12T04:27:48.156Z,21.33
2019-03-12T04:30:18.501Z,21.00
2019-03-12T04:32:47.886Z,21.15
2019-03-12T04:35:23.459Z,25.35
2019-03-12T04:37:52.781Z,18.35
2019-03-12T04:40:22.031Z,18.55
2019-03-12T04:42:51.567Z,23.45
2019-03-12T04:45:20.990Z,20.12
2019-03-12T04:47:50.310Z,20.05
2019-03-12T04:50:19.730Z,22.17
2019-03-12T04:52:49.116Z,19.25
2019-03-12T04:55:18.513Z,18.40
2019-03-12T04:57:47.759Z,19.57
2019-03-12T05:00:20.627Z,23.32
2019-03-12T05:02:49.860Z,21.02
2019-03-12T05:05:19.183Z,18.10
2019-03-12T05:07:48.553Z,17.15
2019-03-12T05:10:17.911Z,18.15
2019-03-12T05:12:47.232Z,17.85
2019-03-12T05:15:20.491Z,17.45
2019-03-12T05:17:49.804Z,20.35
2019-03-12T05:20:19.058Z,20.85
2019-03-12T05:22:48.265Z,18.82
2019-03-12T05:25:17.629Z,18.35
2019-03-12T05:27:46.881Z,18.80
2019-03-12T05:30:19.608Z,21.82
2019-03-12T05:32:48.851Z,18.77
2019-03-12T05:35:18.311Z,20.72
2019-03-12T05:37:47.631Z,19.10
2019-03-12T05:40:16.956Z,23.15
2019-03-12T05:42:46.325Z,17.85
2019-03-12T05:45:19.928Z,22.17
2019-03-12T05:47:49.231Z,20.10
2019-03-12T05:50:21.783Z,20.05
2019-03-12T05:52:51.154Z,17.62
2019-03-12T05:55:20.447Z,21.93
2019-03-12T05:57:49.746Z,17.20
2019-03-12T06:00:21.586Z,17.32
2019-03-12T06:02:50.929Z,18.17
2019-03-12T06:05:20.371Z,16.37
2019-03-12T06:07:50.218Z,19.30
2019-03-12T06:10:19.414Z,19.25
2019-03-12T06:12:48.812Z,18.62
2019-03-12T06:15:18.332Z,22.42
2019-03-12T06:17:47.722Z,20.23
2019-03-12T06:20:17.623Z,19.90
2019-03-12T06:22:47.001Z,19.50
2019-03-12T06:25:16.246Z,21.52
2019-03-12T06:27:45.908Z,19.48
2019-03-12T06:30:46.107Z,18.73
2019-03-12T06:33:06.966Z,18.50
2019-03-12T06:35:37.802Z,20.37
2019-03-12T06:38:11.157Z,15.35
2019-03-12T06:40:50.986Z,14.90
2019-03-12T06:43:28.378Z,20.60
2019-03-12T06:46:11.032Z,17.10
2019-03-12T06:51:17.824Z,14.03
2019-03-12T06:54:03.868Z,19.32
2019-03-12T06:56:34.830Z,19.87
2019-03-12T06:59:18.153Z,18.32
2019-03-12T07:01:58.265Z,17.70
2019-03-12T07:04:47.744Z,24.47
2019-03-12T07:07:34.897Z,20.80
2019-03-12T07:10:07.881Z,19.00
2019-03-12T07:12:54.976Z,16.82
2019-03-12T07:15:25.907Z,31.12
2019-03-12T07:17:56.872Z,18.55
2019-03-12T07:20:44.012Z,15.25
2019-03-12T07:23:20.741Z,14.80
2019-03-12T07:26:10.128Z,15.50
2019-03-12T07:28:57.361Z,17.35
2019-03-12T07:31:28.455Z,16.85
2019-03-12T07:33:59.599Z,16.62
2019-03-12T07:36:46.835Z,15.10
2019-03-12T07:39:20.971Z,13.88
2019-03-12T07:42:07.962Z,12.05
2019-03-12T07:44:38.898Z,21.82
2019-03-12T07:47:35.358Z,13.03
2019-03-12T07:50:06.322Z,13.95
2019-03-12T07:52:37.147Z,22.02
2019-03-12T07:55:24.707Z,12.03
2019-03-12T07:57:55.673Z,10.93
2019-03-12T08:00:26.556Z,9.65
2019-03-12T08:02:57.502Z,10.03
2019-03-12T08:05:28.683Z,8.70
2019-03-12T08:08:02.709Z,9.65
2019-03-12T08:10:48.681Z,11.28
2019-03-12T08:13:35.943Z,9.13
2019-03-12T08:16:24.685Z,12.80
2019-03-12T08:18:58.741Z,7.22
2019-03-12T08:21:41.877Z,7.97
2019-03-12T08:24:25.248Z,8.35
2019-03-12T08:27:08.492Z,7.42
2019-03-12T08:29:48.040Z,7.17
2019-03-12T08:32:23.891Z,6.25
2019-03-12T08:34:54.720Z,7.20
2019-03-12T08:37:25.533Z,8.58
2019-03-12T08:40:05.254Z,11.12
2019-03-12T08:42:38.680Z,7.42
2019-03-12T08:45:26.051Z,8.80
2019-03-12T08:48:02.617Z,6.72
2019-03-12T08:50:36.176Z,4.53
2019-03-12T08:53:12.471Z,4.95
2019-03-12T08:55:43.463Z,5.53
2019-03-12T08:58:20.367Z,5.92
2019-03-12T09:00:53.957Z,7.80
2019-03-12T09:03:43.120Z,6.78
2019-03-12T09:06:16.628Z,8.60
2019-03-12T09:09:02.385Z,5.92
2019-03-12T09:11:49.777Z,7.42
2019-03-12T09:14:20.842Z,6.97
2019-03-12T09:16:57.416Z,8.03
2019-03-12T09:19:44.296Z,6.53
2019-03-12T09:22:17.968Z,7.37
2019-03-12T09:24:57.950Z,7.78
2019-03-12T09:27:43.819Z,7.47
2019-03-12T09:30:14.659Z,7.22
2019-03-12T09:32:45.752Z,7.67
2019-03-12T09:35:22.339Z,6.00
2019-03-12T09:38:08.433Z,4.72
2019-03-12T09:40:42.174Z,5.67
2019-03-12T09:43:18.846Z,9.13
2019-03-12T09:45:52.783Z,7.00
2019-03-12T09:48:23.686Z,6.95
2019-03-12T09:50:54.504Z,3.87
2019-03-12T09:53:28.462Z,4.53
2019-03-12T09:56:11.295Z,3.62
2019-03-12T09:58:42.294Z,5.22
2019-03-12T10:01:22.714Z,4.75
2019-03-12T10:04:02.550Z,5.35
2019-03-12T10:06:39.398Z,6.22
2019-03-12T10:09:29.374Z,7.00
2019-03-12T10:12:00.223Z,5.05
2019-03-12T10:14:31.269Z,5.80
2019-03-12T10:17:13.919Z,5.05
2019-03-12T10:54:22.842Z,4.95
2019-03-12T10:56:52.081Z,6.15
2019-03-12T10:59:21.326Z,5.75
2019-03-12T11:01:50.557Z,3.83
2019-03-12T11:04:19.731Z,4.15
2019-03-12T11:06:48.913Z,7.85
2019-03-12T11:09:18.184Z,5.95
2019-03-12T11:11:47.371Z,5.17
2019-03-12T11:14:16.654Z,4.22
2019-03-12T11:16:45.932Z,4.47
2019-03-12T11:19:15.272Z,3.67
2019-03-12T11:21:44.554Z,3.72
2019-03-12T11:24:13.808Z,4.40
2019-03-12T11:26:43.239Z,6.10
2019-03-12T11:29:12.491Z,4.85
2019-03-12T11:31:41.810Z,4.12
2019-03-12T11:34:11.036Z,4.25
2019-03-12T11:36:40.278Z,3.35
2019-03-12T11:39:09.514Z,4.25
2019-03-12T11:41:38.805Z,4.87
2019-03-12T11:44:08.093Z,6.35
2019-03-12T11:46:44.352Z,5.90
2019-03-12T11:49:08.260Z,3.60
2019-03-12T11:51:37.609Z,7.22
2019-03-12T11:54:06.854Z,4.12
2019-03-12T11:56:36.090Z,8.15
2019-03-12T11:59:05.391Z,5.67
2019-03-12T12:01:34.734Z,5.50
2019-03-12T12:04:03.977Z,6.85
2019-03-12T12:06:33.147Z,6.42
2019-03-12T12:09:02.427Z,4.50
2019-03-12T12:11:31.635Z,5.28
2019-03-12T12:14:00.812Z,4.75
2019-03-12T12:16:30.061Z,6.10
2019-03-12T12:18:59.325Z,8.05
2019-03-12T12:21:28.636Z,6.30
2019-03-12T12:23:58.014Z,6.12
2019-03-12T12:26:27.187Z,5.85
2019-03-12T12:28:56.351Z,3.33
2019-03-12T12:31:25.571Z,5.58
2019-03-12T12:33:54.824Z,4.70
2019-03-12T12:36:24.064Z,4.30
2019-03-12T12:38:53.679Z,4.95
2019-03-12T12:41:22.932Z,5.28
2019-03-12T12:43:52.114Z,5.25
2019-03-12T12:46:21.389Z,6.62
2019-03-12T12:48:53.188Z,5.28
2019-03-12T12:51:21.623Z,3.98
2019-03-12T12:53:50.855Z,4.47
2019-03-12T12:56:20.221Z,4.75
2019-03-12T12:58:49.537Z,6.50
2019-03-12T13:01:18.796Z,4.05
2019-03-12T13:03:48.066Z,5.12
2019-03-12T13:06:17.279Z,6.72
2019-03-12T13:08:46.523Z,5.70
2019-03-12T13:11:15.700Z,6.42
2019-03-12T13:13:45.028Z,6.35
2019-03-12T13:16:24.493Z,6.97
2019-03-12T13:18:45.259Z,3.80
2019-03-12T13:21:14.479Z,4.85
2019-03-12T13:23:43.714Z,4.72
2019-03-12T13:26:12.951Z,5.97
2019-03-12T13:28:44.884Z,6.58
2019-03-12T13:31:13.131Z,4.45
2019-03-12T13:33:42.478Z,4.35
2019-03-12T13:36:13.387Z,7.58
2019-03-12T13:38:46.705Z,6.08
2019-03-12T13:41:13.621Z,5.12
2019-03-12T13:43:42.961Z,4.00
2019-03-12T13:46:12.242Z,9.73
2019-03-12T13:48:41.449Z,8.65
2019-03-12T13:51:10.729Z,7.03
2019-03-12T13:53:39.993Z,14.87
2019-03-12T13:56:09.303Z,34.23
2019-03-12T13:58:38.684Z,6.92
2019-03-12T14:01:07.939Z,4.62
2019-03-12T14:03:37.110Z,5.40
2019-03-12T14:06:06.381Z,36.40
2019-03-12T14:08:35.633Z,3.52
2019-03-12T14:11:05.002Z,4.25
2019-03-12T14:13:34.240Z,2.65
2019-03-12T14:16:03.480Z,3.72
2019-03-12T14:18:32.754Z,4.53
2019-03-12T14:21:07.763Z,3.85
2019-03-12T14:23:39.865Z,2.58
2019-03-12T14:26:09.162Z,3.60
2019-03-12T14:28:38.503Z,5.70
2019-03-12T14:31:07.822Z,6.85
2019-03-12T14:33:37.088Z,7.50
2019-03-12T14:36:06.604Z,3.15
2019-03-12T14:38:35.848Z,7.33
2019-03-12T14:41:05.090Z,3.58
2019-03-12T14:43:34.382Z,5.45
2019-03-12T14:46:03.619Z,4.15
2019-03-12T14:48:40.343Z,3.83
2019-03-12T14:51:18.736Z,6.08
2019-03-12T14:53:54.070Z,3.10
2019-03-12T14:56:26.721Z,2.70
2019-03-12T14:58:55.994Z,4.30
2019-03-12T15:01:25.196Z,4.50
2019-03-12T15:03:54.574Z,4.03
2019-03-12T15:06:23.744Z,3.60
2019-03-12T15:08:52.917Z,7.60
2019-03-12T15:11:22.217Z,3.70
2019-03-12T15:13:51.406Z,3.17
2019-03-12T15:16:20.660Z,4.15
2019-03-12T15:18:51.994Z,3.37
2019-03-12T15:21:20.843Z,3.95
2019-03-12T15:23:50.090Z,3.20
2019-03-12T15:26:19.377Z,3.37
2019-03-12T15:28:48.628Z,4.03
2019-03-12T15:31:18.056Z,8.28
2019-03-12T15:33:47.261Z,5.95
2019-03-12T15:36:16.457Z,3.70
2019-03-12T15:38:45.876Z,7.15
2019-03-12T15:41:15.106Z,4.97
2019-03-12T15:43:44.281Z,5.70
2019-03-12T15:46:13.528Z,4.00
2019-03-12T15:48:42.865Z,4.83
2019-03-12T15:51:12.043Z,4.70
2019-03-12T15:53:41.242Z,4.40
2019-03-12T15:56:10.484Z,5.65
2019-03-12T15:58:39.759Z,4.90
2019-03-12T16:01:08.931Z,3.58
2019-03-12T16:03:38.292Z,4.75
2019-03-12T16:06:07.536Z,4.53
2019-03-12T16:08:36.779Z,3.62
2019-03-12T16:11:06.413Z,4.62
2019-03-12T16:13:35.633Z,6.42
2019-03-12T16:16:05.399Z,9.05
2019-03-12T16:18:34.648Z,3.52
2019-03-12T16:21:03.821Z,5.35
2019-03-12T16:23:33.053Z,8.78
2019-03-12T16:26:02.289Z,6.45
2019-03-12T16:28:31.460Z,17.92
2019-03-12T16:31:00.669Z,14.10
2019-03-12T16:33:29.919Z,23.52
2019-03-12T16:35:59.213Z,29.98
2019-03-12T16:38:28.383Z,21.80
2019-03-12T16:40:57.896Z,20.12
2019-03-12T16:43:27.434Z,17.20
2019-03-12T16:45:56.677Z,23.32
2019-03-12T16:48:26.005Z,23.32
2019-03-12T16:50:55.302Z,26.15
2019-03-12T16:53:24.551Z,33.08
2019-03-12T16:55:53.732Z,35.00
2019-03-12T16:58:23.643Z,38.30
2019-03-12T17:00:52.821Z,41.70
2019-03-12T17:03:22.070Z,31.00
2019-03-12T17:05:51.610Z,30.88
2019-03-12T17:08:20.870Z,49.45
2019-03-12T17:10:58.207Z,46.30
2019-03-12T17:13:21.214Z,36.13
2019-03-12T17:15:54.451Z,35.20
2019-03-12T17:18:21.341Z,39.10
2019-03-12T17:20:50.642Z,31.33
2019-03-12T17:23:19.853Z,29.30
2019-03-12T17:25:49.190Z,33.58
2019-03-12T17:28:18.429Z,36.70
2019-03-12T17:30:47.618Z,32.88
2019-03-12T17:33:16.808Z,33.70
2019-03-12T17:35:46.239Z,36.77
2019-03-12T17:38:15.485Z,31.90
2019-03-12T17:40:44.670Z,26.65
2019-03-12T17:43:14.042Z,31.15
2019-03-12T17:45:43.364Z,34.67
2019-03-12T17:48:12.617Z,30.12
2019-03-12T17:50:41.838Z,32.25
2019-03-12T17:53:11.028Z,33.80
2019-03-12T17:55:40.207Z,32.95
2019-03-12T17:58:09.575Z,29.32
2019-03-12T18:00:40.423Z,31.80
2019-03-12T18:03:09.668Z,34.75
2019-03-12T18:05:38.972Z,32.03
2019-03-12T18:08:08.260Z,29.90
2019-03-12T18:10:37.418Z,32.33
2019-03-12T18:13:06.694Z,32.05
2019-03-12T18:15:35.906Z,30.02
2019-03-12T18:18:05.256Z,35.43
2019-03-12T18:20:34.406Z,36.83
2019-03-12T18:23:03.662Z,37.95
2019-03-12T18:25:37.758Z,37.50
2019-03-12T18:28:09.257Z,40.67
2019-03-12T18:30:38.536Z,34.87
2019-03-12T18:33:07.900Z,33.80
2019-03-12T18:35:37.146Z,32.55
2019-03-12T18:38:06.473Z,32.98
2019-03-12T18:40:35.818Z,42.17
2019-03-12T18:43:05.121Z,40.33
2019-03-12T18:45:38.743Z,40.43
2019-03-12T18:48:07.975Z,43.20
2019-03-12T18:50:37.220Z,37.67
2019-03-12T18:53:06.524Z,44.23
2019-03-12T18:55:44.104Z,45.80
2019-03-12T18:58:13.355Z,39.30
2019-03-12T19:00:48.529Z,47.38
2019-03-12T19:03:16.915Z,47.38
2019-03-12T19:05:46.091Z,42.62
2019-03-12T19:08:15.372Z,39.33
2019-03-12T19:10:44.746Z,41.77
2019-03-12T19:13:13.987Z,38.35
2019-03-12T19:15:43.292Z,38.92
2019-03-12T19:18:12.566Z,49.40
2019-03-12T19:20:41.856Z,49.85
2019-03-12T19:23:11.092Z,47.48
2019-03-12T19:25:43.281Z,51.42
2019-03-12T19:28:12.569Z,47.78
2019-03-12T19:30:41.983Z,46.65
2019-03-12T19:33:12.815Z,42.65
2019-03-12T19:35:42.014Z,44.85
2019-03-12T19:38:11.328Z,43.33
2019-03-12T19:40:45.861Z,41.58
2019-03-12T19:43:15.183Z,40.20
2019-03-12T19:45:44.358Z,38.08
2019-03-12T19:48:13.634Z,36.70
2019-03-12T19:50:42.879Z,39.85
2019-03-12T19:53:12.145Z,39.85
2019-03-12T19:55:53.643Z,38.92
2019-03-12T19:58:22.970Z,39.33
2019-03-12T20:00:52.569Z,43.23
2019-03-12T20:03:21.812Z,38.90
2019-03-12T20:05:51.113Z,49.10
2019-03-12T20:08:20.315Z,39.73
2019-03-12T20:11:07.959Z,40.08
2019-03-12T20:14:07.707Z,41.53
2019-03-12T20:17:09.120Z,40.35
2019-03-12T20:19:57.316Z,41.23
2019-03-12T20:22:58.629Z,40.70
2019-03-12T20:26:04.470Z,40.98
2019-03-12T20:29:10.906Z,37.00
2019-03-12T20:32:01.582Z,45.55
2019-03-12T20:35:09.372Z,40.88
2019-03-12T20:38:02.674Z,36.60
2019-03-12T20:40:57.993Z,43.05
2019-03-12T20:43:55.905Z,42.55
2019-03-12T20:46:37.257Z,46.77
2019-03-12T20:49:26.810Z,50.33
2019-03-12T20:52:32.449Z,59.75
2019-03-12T20:55:20.161Z,51.53
2019-03-12T20:58:24.220Z,55.92
2019-03-12T21:01:21.772Z,58.83
2019-03-12T21:04:18.118Z,51.77
2019-03-12T21:07:23.776Z,58.85
2019-03-12T21:10:25.168Z,59.42
2019-03-12T21:13:32.354Z,53.45
2019-03-12T21:16:33.851Z,58.23
2019-03-12T21:19:39.619Z,52.43
2019-03-12T21:22:23.921Z,52.35
2019-03-12T21:24:56.356Z,54.35
2019-03-12T21:29:55.031Z,53.20
2019-03-12T21:32:24.201Z,47.30
2019-03-12T21:34:53.446Z,45.73
2019-03-12T21:37:22.717Z,47.73
2019-03-12T21:39:55.833Z,51.95
2019-03-12T21:42:25.281Z,48.68
2019-03-12T21:44:54.031Z,53.45
2019-03-12T21:47:23.375Z,55.60
2019-03-12T21:49:52.614Z,61.95
2019-03-12T21:52:21.890Z,73.10
2019-03-12T21:54:51.161Z,65.17
2019-03-12T21:57:20.346Z,56.48
2019-03-12T21:59:49.622Z,53.90
2019-03-12T22:02:18.871Z,54.63
2019-03-12T22:04:48.113Z,62.27
2019-03-12T22:07:17.362Z,65.47
2019-03-12T22:09:46.612Z,62.25
2019-03-12T22:12:15.852Z,68.80
2019-03-12T22:14:45.089Z,56.98
2019-03-12T22:17:14.343Z,48.65
2019-03-12T22:19:43.594Z,54.93
2019-03-12T22:22:26.306Z,48.40
2019-03-12T22:25:08.227Z,51.73
2019-03-12T22:27:37.400Z,51.68
2019-03-12T22:30:26.148Z,42.60
2019-03-12T22:32:55.324Z,45.95
2019-03-12T22:35:24.565Z,44.70
2019-03-12T22:37:53.804Z,45.70
2019-03-12T22:40:23.061Z,42.03
2019-03-12T22:42:52.245Z,45.15
2019-03-12T22:45:21.545Z,44.18
2019-03-12T22:47:50.732Z,38.02
2019-03-12T22:50:20.054Z,45.73
2019-03-12T22:52:49.337Z,42.88
2019-03-12T22:55:18.585Z,47.50
2019-03-12T22:57:47.835Z,47.83
2019-03-12T23:00:19.590Z,43.95
2019-03-12T23:02:48.890Z,40.85
2019-03-12T23:05:18.142Z,46.10
2019-03-12T23:07:47.464Z,42.98
2019-03-12T23:10:17.330Z,46.63
2019-03-12T23:12:46.670Z,38.78
2019-03-12T23:15:17.486Z,42.67
2019-03-12T23:17:46.714Z,42.05
2019-03-12T23:20:18.983Z,41.48
2019-03-12T23:22:48.241Z,40.83
2019-03-12T23:25:17.538Z,44.42
2019-03-12T23:27:46.799Z,44.50
2019-03-12T23:30:17.716Z,42.95
2019-03-12T23:32:47.042Z,46.92
2019-03-12T23:35:16.235Z,47.58
2019-03-12T23:37:45.492Z,42.83
2019-03-12T23:40:18.656Z,51.20
2019-03-12T23:42:47.850Z,46.60
2019-03-12T23:45:17.197Z,49.80
2019-03-12T23:47:46.516Z,47.23
2019-03-12T23:50:18.878Z,44.00
2019-03-12T23:55:18.398Z,40.20
2019-03-12T23:57:47.657Z,50.25
